createdAt,value
2023-11-30T00:02:19.372Z,12.90
2023-11-30T00:04:48.961Z,11.73
2023-11-30T00:07:17.240Z,11.23
2023-11-30T00:09:45.684Z,12.93
2023-11-30T00:12:13.949Z,13.57
2023-11-30T00:14:42.314Z,12.40
2023-11-30T00:17:10.449Z,13.98
2023-11-30T00:19:38.610Z,11.60
2023-11-30T00:22:08.228Z,11.20
2023-11-30T00:24:36.406Z,12.07
2023-11-30T00:27:04.930Z,11.23
2023-11-30T00:29:33.143Z,13.77
2023-11-30T00:32:01.344Z,13.00
2023-11-30T00:34:29.549Z,11.20
2023-11-30T00:36:57.705Z,12.98
2023-11-30T00:39:27.399Z,11.30
2023-11-30T00:41:55.934Z,11.13
2023-11-30T00:44:24.691Z,12.05
2023-11-30T00:46:52.892Z,11.27
2023-11-30T00:49:21.066Z,11.85
2023-11-30T00:51:49.262Z,11.07
2023-11-30T00:54:17.486Z,11.60
2023-11-30T00:56:47.085Z,12.27
2023-11-30T00:59:15.332Z,13.60
2023-11-30T01:01:43.784Z,10.93
2023-11-30T01:04:12.214Z,12.48
2023-11-30T01:06:40.449Z,13.90
2023-11-30T01:09:08.687Z,11.30
2023-11-30T01:11:43.027Z,12.55
2023-11-30T01:14:12.755Z,11.65
2023-11-30T01:16:41.524Z,11.23
2023-11-30T01:19:09.709Z,10.57
2023-11-30T01:21:37.776Z,12.18
2023-11-30T01:24:06.787Z,10.88
2023-11-30T01:26:35.108Z,10.43
2023-11-30T01:29:03.493Z,9.32
2023-11-30T01:31:33.541Z,10.38
2023-11-30T01:34:01.830Z,11.27
2023-11-30T01:36:30.020Z,10.80
2023-11-30T01:38:58.319Z,9.63
2023-11-30T01:41:26.956Z,10.38
2023-11-30T01:43:55.245Z,9.98
2023-11-30T01:46:24.137Z,11.35
2023-11-30T01:48:54.079Z,9.95
2023-11-30T01:51:23.300Z,9.77
2023-11-30T01:53:51.764Z,10.27
2023-11-30T01:56:22.469Z,11.38
2023-11-30T01:58:51.477Z,10.80
2023-11-30T02:01:21.211Z,10.88
2023-11-30T02:03:49.653Z,10.75
2023-11-30T02:06:20.459Z,9.40
2023-11-30T02:08:48.761Z,8.75
2023-11-30T02:11:17.250Z,9.75
2023-11-30T02:13:45.434Z,9.63
2023-11-30T02:16:13.716Z,8.98
2023-11-30T02:18:41.921Z,8.88
2023-11-30T02:21:10.716Z,9.15
2023-11-30T02:23:40.334Z,9.77
2023-11-30T02:26:09.315Z,8.90
2023-11-30T02:28:37.510Z,8.30
2023-11-30T02:31:05.908Z,9.43
2023-11-30T02:33:34.084Z,9.43
2023-11-30T02:36:02.379Z,10.18
2023-11-30T02:38:30.761Z,9.27
2023-11-30T02:41:00.343Z,9.38
2023-11-30T02:43:31.125Z,9.55
2023-11-30T02:45:59.367Z,9.52
2023-11-30T02:48:27.602Z,9.45
2023-11-30T02:50:55.810Z,8.43
2023-11-30T02:53:24.061Z,10.38
2023-11-30T02:55:52.599Z,9.13
2023-11-30T02:58:22.225Z,9.05
2023-11-30T03:00:50.437Z,9.10
2023-11-30T03:03:18.699Z,9.55
2023-11-30T03:05:46.891Z,9.88
2023-11-30T03:08:15.135Z,9.35
2023-11-30T03:10:43.272Z,9.38
2023-11-30T03:13:11.431Z,9.05
2023-11-30T03:15:47.450Z,9.73
2023-11-30T03:18:15.842Z,8.88
2023-11-30T03:20:44.256Z,8.82
2023-11-30T03:23:14.004Z,8.07
2023-11-30T03:25:42.574Z,8.45
2023-11-30T03:28:10.834Z,9.20
2023-11-30T03:30:39.069Z,7.85
2023-11-30T03:33:08.807Z,9.07
2023-11-30T03:35:37.122Z,9.05
2023-11-30T03:38:05.337Z,8.85
2023-11-30T03:40:33.519Z,8.50
2023-11-30T03:43:01.688Z,9.15
2023-11-30T03:45:35.673Z,7.78
2023-11-30T03:48:04.388Z,8.77
2023-11-30T03:50:33.977Z,9.25
2023-11-30T03:53:02.108Z,8.75
2023-11-30T03:55:30.284Z,8.73
2023-11-30T03:57:58.502Z,9.10
2023-11-30T04:00:29.467Z,8.90
2023-11-30T04:02:57.635Z,9.65
2023-11-30T04:05:25.882Z,9.90
2023-11-30T04:07:55.922Z,8.52
2023-11-30T04:10:24.126Z,9.02
2023-11-30T04:12:52.507Z,9.50
2023-11-30T04:15:20.787Z,8.90
2023-11-30T04:17:49.021Z,9.30
2023-11-30T04:20:17.395Z,10.25
2023-11-30T04:22:45.635Z,8.82
2023-11-30T04:25:15.350Z,9.23
2023-11-30T04:27:43.553Z,9.43
2023-11-30T04:30:12.375Z,9.30
2023-11-30T04:32:40.590Z,8.98
2023-11-30T04:35:09.543Z,9.10
2023-11-30T04:37:37.766Z,9.80
2023-11-30T04:40:07.570Z,9.55
2023-11-30T04:42:37.496Z,8.98
2023-11-30T04:45:06.691Z,9.23
2023-11-30T04:47:35.006Z,9.38
2023-11-30T04:50:03.256Z,8.95
2023-11-30T04:52:31.403Z,9.68
2023-11-30T04:55:00.107Z,9.82
2023-11-30T04:57:28.370Z,9.73
2023-11-30T04:59:57.924Z,8.80
2023-11-30T05:02:26.216Z,9.40
2023-11-30T05:04:54.524Z,9.18
2023-11-30T05:07:22.802Z,7.90
2023-11-30T05:09:50.943Z,8.73
2023-11-30T05:12:19.216Z,8.85
2023-11-30T05:14:47.469Z,8.38
2023-11-30T05:17:17.008Z,9.65
2023-11-30T05:19:45.200Z,8.77
2023-11-30T05:22:13.351Z,8.27
2023-11-30T05:24:41.612Z,9.35
2023-11-30T05:27:09.842Z,9.32
2023-11-30T05:29:38.498Z,9.57
2023-11-30T05:32:06.903Z,10.30
2023-11-30T05:34:37.355Z,9.77
2023-11-30T05:37:06.417Z,9.18
2023-11-30T05:39:37.413Z,9.77
2023-11-30T05:42:06.248Z,10.23
2023-11-30T05:44:34.579Z,10.02
2023-11-30T05:47:02.835Z,10.07
2023-11-30T05:49:31.281Z,9.27
2023-11-30T05:52:00.741Z,9.95
2023-11-30T05:54:28.959Z,8.82
2023-11-30T05:56:59.169Z,9.25
2023-11-30T05:59:28.582Z,8.60
2023-11-30T06:01:56.770Z,9.60
2023-11-30T06:04:24.943Z,9.57
2023-11-30T06:06:53.056Z,9.07
2023-11-30T06:09:22.562Z,10.32
2023-11-30T06:11:52.198Z,10.32
2023-11-30T06:14:20.462Z,11.00
2023-11-30T06:16:48.535Z,10.90
2023-11-30T06:19:16.552Z,10.20
2023-11-30T06:21:44.585Z,10.43
2023-11-30T06:24:12.661Z,9.57
2023-11-30T06:26:43.057Z,10.40
2023-11-30T06:29:12.277Z,10.30
2023-11-30T06:31:40.587Z,10.57
2023-11-30T06:34:08.726Z,10.73
2023-11-30T06:36:39.320Z,10.60
2023-11-30T06:39:08.013Z,10.70
2023-11-30T06:41:36.329Z,9.88
2023-11-30T06:44:06.157Z,11.55
2023-11-30T06:46:34.262Z,10.50
2023-11-30T06:49:02.370Z,11.90
2023-11-30T06:51:30.463Z,11.55
2023-11-30T06:53:58.651Z,10.68
2023-11-30T06:56:26.740Z,12.20
2023-11-30T06:58:55.067Z,11.40
2023-11-30T07:01:27.576Z,12.05
2023-11-30T07:03:56.725Z,11.65
2023-11-30T07:06:25.402Z,11.20
2023-11-30T07:08:54.713Z,11.52
2023-11-30T07:11:23.018Z,11.30
2023-11-30T07:13:51.362Z,11.40
2023-11-30T07:16:19.543Z,11.45
2023-11-30T07:18:49.349Z,11.27
2023-11-30T07:21:17.745Z,12.90
2023-11-30T07:23:46.856Z,11.60
2023-11-30T07:26:15.768Z,11.60
2023-11-30T07:28:44.533Z,11.82
2023-11-30T07:31:19.708Z,12.13
2023-11-30T07:33:49.511Z,10.60
2023-11-30T07:36:18.620Z,11.50
2023-11-30T07:38:46.895Z,12.48
2023-11-30T07:41:18.342Z,14.73
2023-11-30T07:43:47.066Z,11.93
2023-11-30T07:46:15.841Z,13.23
2023-11-30T07:48:44.181Z,13.50
2023-11-30T07:51:13.859Z,13.82
2023-11-30T07:53:42.081Z,14.00
2023-11-30T07:56:11.721Z,14.13
2023-11-30T07:58:41.971Z,13.98
2023-11-30T08:01:10.780Z,14.02
2023-11-30T08:03:39.383Z,15.35
2023-11-30T08:06:08.752Z,15.30
2023-11-30T08:08:38.487Z,15.30
2023-11-30T08:11:07.406Z,15.68
2023-11-30T08:13:36.881Z,15.40
2023-11-30T08:16:05.522Z,14.32
2023-11-30T08:18:34.008Z,14.77
2023-11-30T08:21:03.750Z,16.33
2023-11-30T08:23:34.516Z,16.67
2023-11-30T08:26:05.247Z,19.42
2023-11-30T08:28:34.172Z,18.10
2023-11-30T08:31:06.280Z,17.95
2023-11-30T08:33:35.295Z,18.08
2023-11-30T08:36:04.296Z,16.70
2023-11-30T08:38:32.829Z,16.95
2023-11-30T08:41:01.390Z,18.48
2023-11-30T08:43:31.276Z,18.88
2023-11-30T08:45:59.612Z,19.52
2023-11-30T08:48:28.042Z,20.55
2023-11-30T08:50:56.377Z,19.48
2023-11-30T08:53:25.501Z,19.63
2023-11-30T08:55:53.716Z,21.20
2023-11-30T08:58:21.889Z,20.95
2023-11-30T09:00:52.541Z,19.38
2023-11-30T09:03:20.791Z,19.02
2023-11-30T09:05:49.911Z,19.92
2023-11-30T09:08:18.374Z,20.17
2023-11-30T09:10:46.614Z,20.58
2023-11-30T09:13:15.061Z,20.90
2023-11-30T09:15:43.510Z,19.17
2023-11-30T09:18:13.612Z,21.10
2023-11-30T09:20:41.920Z,22.65
2023-11-30T09:23:10.151Z,17.23
2023-11-30T09:25:38.554Z,19.00
2023-11-30T09:28:06.756Z,19.63
2023-11-30T09:30:35.322Z,20.27
2023-11-30T09:33:04.772Z,20.13
2023-11-30T09:35:34.428Z,19.80
2023-11-30T09:38:02.850Z,18.77
2023-11-30T09:40:31.266Z,19.95
2023-11-30T09:42:59.539Z,20.60
2023-11-30T09:45:27.990Z,19.75
2023-11-30T09:47:56.314Z,20.85
2023-11-30T09:50:24.628Z,22.02
2023-11-30T09:52:54.371Z,20.63
2023-11-30T09:55:26.614Z,22.55
2023-11-30T09:57:54.936Z,20.23
2023-11-30T10:00:23.375Z,19.55
2023-11-30T10:02:55.615Z,20.63
2023-11-30T10:05:25.219Z,19.73
2023-11-30T10:07:55.225Z,20.63
2023-11-30T10:10:23.513Z,20.90
2023-11-30T10:12:52.158Z,20.92
2023-11-30T10:15:21.563Z,20.88
2023-11-30T10:17:50.281Z,20.25
2023-11-30T10:20:20.551Z,19.70
2023-11-30T10:22:48.835Z,23.35
2023-11-30T10:25:18.642Z,22.67
2023-11-30T10:27:50.542Z,22.10
2023-11-30T10:30:21.163Z,23.05
2023-11-30T10:32:50.071Z,22.55
2023-11-30T10:35:21.332Z,22.10
2023-11-30T10:37:52.908Z,20.85
2023-11-30T10:40:26.125Z,24.45
2023-11-30T10:42:54.364Z,23.13
2023-11-30T10:45:24.105Z,22.60
2023-11-30T10:47:52.892Z,21.23
2023-11-30T10:50:22.176Z,21.98
2023-11-30T10:52:54.097Z,23.17
2023-11-30T10:55:24.929Z,21.43
2023-11-30T10:57:58.165Z,21.92
2023-11-30T11:00:27.356Z,22.15
2023-11-30T11:02:55.584Z,23.17
2023-11-30T11:05:23.808Z,21.67
2023-11-30T11:07:53.683Z,23.42
2023-11-30T11:10:24.878Z,22.88
2023-11-30T11:12:53.578Z,22.30
2023-11-30T11:15:23.904Z,22.83
2023-11-30T11:17:54.580Z,22.35
2023-11-30T11:20:26.399Z,21.70
2023-11-30T11:22:56.930Z,21.90
2023-11-30T11:25:27.505Z,22.73
2023-11-30T11:27:57.587Z,23.15
2023-11-30T11:30:28.369Z,37.33
2023-11-30T11:33:00.002Z,25.58
2023-11-30T11:35:29.138Z,23.70
2023-11-30T11:37:59.330Z,24.20
2023-11-30T11:40:29.459Z,23.42
2023-11-30T11:42:57.697Z,22.23
2023-11-30T11:45:26.219Z,23.00
2023-11-30T11:47:55.244Z,21.92
2023-11-30T11:50:23.620Z,23.77
2023-11-30T11:52:51.984Z,22.42
2023-11-30T11:55:25.284Z,21.73
2023-11-30T11:57:55.304Z,25.08
2023-11-30T12:00:25.627Z,24.67
2023-11-30T12:03:05.279Z,25.02
2023-11-30T12:05:33.604Z,23.52
2023-11-30T12:08:02.681Z,25.80
2023-11-30T12:10:32.921Z,22.40
2023-11-30T12:13:06.158Z,23.98
2023-11-30T12:15:34.601Z,25.52
2023-11-30T12:18:03.316Z,25.48
2023-11-30T12:20:32.370Z,25.33
2023-11-30T12:23:00.554Z,23.05
2023-11-30T12:25:29.863Z,26.38
2023-11-30T12:27:58.098Z,24.13
2023-11-30T12:30:27.733Z,23.65
2023-11-30T12:32:56.030Z,22.60
2023-11-30T12:35:25.928Z,24.30
2023-11-30T12:37:54.172Z,23.73
2023-11-30T12:40:22.518Z,27.35
2023-11-30T12:42:50.760Z,25.00
2023-11-30T12:45:19.928Z,24.58
2023-11-30T12:47:50.702Z,25.55
2023-11-30T12:50:20.830Z,22.63
2023-11-30T12:52:49.602Z,24.05
2023-11-30T12:55:19.825Z,25.42
2023-11-30T12:57:49.243Z,23.95
2023-11-30T13:00:18.477Z,24.88
2023-11-30T13:02:49.100Z,24.17
2023-11-30T13:05:19.014Z,23.20
2023-11-30T13:07:47.388Z,23.25
2023-11-30T13:10:15.595Z,23.85
2023-11-30T13:12:43.897Z,22.60
2023-11-30T13:15:14.517Z,24.80
2023-11-30T13:17:43.029Z,24.23
2023-11-30T13:20:15.089Z,22.92
2023-11-30T13:22:46.514Z,23.10
2023-11-30T13:25:16.301Z,22.77
2023-11-30T13:27:47.867Z,23.17
2023-11-30T13:30:18.738Z,22.08
2023-11-30T13:32:48.020Z,21.50
2023-11-30T13:35:16.809Z,21.70
2023-11-30T13:37:46.566Z,24.10
2023-11-30T13:40:17.076Z,22.42
2023-11-30T13:42:45.405Z,21.08
2023-11-30T13:45:13.842Z,20.00
2023-11-30T13:47:49.011Z,20.40
2023-11-30T13:50:26.334Z,19.85
2023-11-30T13:53:01.029Z,18.27
2023-11-30T13:55:30.383Z,20.17
2023-11-30T13:57:59.324Z,20.60
2023-11-30T14:00:27.709Z,18.75
2023-11-30T14:03:11.589Z,17.38
2023-11-30T14:05:39.852Z,17.50
2023-11-30T14:08:09.903Z,18.05
2023-11-30T14:10:38.275Z,19.25
2023-11-30T14:13:06.961Z,15.85
2023-11-30T14:15:35.394Z,18.52
2023-11-30T14:18:04.546Z,17.15
2023-11-30T14:20:32.791Z,17.60
2023-11-30T14:23:01.082Z,17.30
2023-11-30T14:25:30.989Z,18.02
2023-11-30T14:28:04.904Z,18.10
2023-11-30T14:30:36.768Z,16.90
2023-11-30T14:33:05.431Z,19.58
2023-11-30T14:35:34.073Z,17.85
2023-11-30T14:38:02.428Z,17.25
2023-11-30T14:40:32.088Z,17.95
2023-11-30T14:43:00.569Z,17.48
2023-11-30T14:45:29.325Z,15.75
2023-11-30T14:47:59.869Z,17.77
2023-11-30T14:50:28.383Z,17.75
2023-11-30T14:52:56.521Z,16.02
2023-11-30T14:55:24.873Z,17.42
2023-11-30T14:57:55.424Z,16.88
2023-11-30T15:00:24.656Z,16.50
2023-11-30T15:02:53.589Z,16.83
2023-11-30T15:05:21.959Z,15.85
2023-11-30T15:07:50.253Z,16.10
2023-11-30T15:10:18.519Z,17.70
2023-11-30T15:12:46.980Z,15.35
2023-11-30T15:15:17.108Z,17.05
2023-11-30T15:17:46.466Z,15.20
2023-11-30T15:20:15.844Z,16.08
2023-11-30T15:22:45.154Z,15.13
2023-11-30T15:25:18.996Z,15.18
2023-11-30T15:27:48.105Z,13.55
2023-11-30T15:30:18.507Z,14.57
2023-11-30T15:32:46.849Z,14.10
2023-11-30T15:35:16.276Z,14.45
2023-11-30T15:37:49.839Z,13.13
2023-11-30T15:40:19.127Z,13.25
2023-11-30T15:42:47.846Z,13.15
2023-11-30T15:45:19.013Z,12.80
2023-11-30T15:47:47.527Z,12.23
2023-11-30T15:50:15.958Z,11.38
2023-11-30T15:52:44.615Z,10.93
2023-11-30T15:55:14.115Z,10.98
2023-11-30T15:57:42.854Z,11.30
2023-11-30T16:00:13.365Z,11.57
2023-11-30T16:02:44.674Z,10.50
2023-11-30T16:05:14.887Z,11.40
2023-11-30T16:07:43.127Z,10.43
2023-11-30T16:10:12.221Z,11.02
2023-11-30T16:12:41.005Z,11.25
2023-11-30T16:15:12.147Z,10.95
2023-11-30T16:17:40.997Z,10.60
2023-11-30T16:20:14.710Z,12.35
2023-11-30T16:22:47.175Z,10.23
2023-11-30T16:25:15.501Z,12.40
2023-11-30T16:27:44.322Z,11.75
2023-11-30T16:30:14.344Z,10.65
2023-11-30T16:32:42.476Z,10.52
2023-11-30T16:35:12.437Z,9.45
2023-11-30T16:37:40.553Z,9.45
2023-11-30T16:40:11.275Z,10.05
2023-11-30T16:42:40.465Z,8.50
2023-11-30T16:45:09.879Z,11.30
2023-11-30T16:47:39.445Z,10.38
2023-11-30T16:50:09.871Z,9.60
2023-11-30T16:52:41.000Z,9.85
2023-11-30T16:55:10.951Z,8.77
2023-11-30T16:57:39.091Z,9.82
2023-11-30T17:00:08.703Z,9.30
2023-11-30T17:02:37.175Z,10.32
2023-11-30T17:05:06.801Z,9.85
2023-11-30T17:07:35.481Z,10.02
2023-11-30T17:10:05.492Z,10.02
2023-11-30T17:12:35.254Z,8.70
2023-11-30T17:15:05.080Z,9.75
2023-11-30T17:17:34.029Z,9.63
2023-11-30T17:20:02.599Z,9.68
2023-11-30T17:22:31.474Z,10.30
2023-11-30T17:24:59.747Z,7.97
2023-11-30T17:27:29.405Z,10.60
2023-11-30T17:29:57.550Z,9.23
2023-11-30T17:32:26.000Z,9.02
2023-11-30T17:34:55.016Z,10.57
2023-11-30T17:37:23.235Z,9.38
2023-11-30T17:39:51.670Z,8.63
2023-11-30T17:42:21.346Z,8.65
2023-11-30T17:44:51.018Z,8.10
2023-11-30T17:47:19.670Z,9.25
2023-11-30T17:49:48.022Z,7.85
2023-11-30T17:52:16.791Z,8.45
2023-11-30T17:54:45.081Z,9.23
2023-11-30T17:57:13.259Z,9.65
2023-11-30T17:59:41.614Z,8.82
2023-11-30T18:02:11.210Z,9.60
2023-11-30T18:04:39.448Z,8.57
2023-11-30T18:07:11.010Z,8.10
2023-11-30T18:09:39.508Z,10.07
2023-11-30T18:12:08.850Z,9.02
2023-11-30T18:14:38.910Z,8.88
2023-11-30T18:17:07.287Z,9.63
2023-11-30T18:19:36.751Z,9.00
2023-11-30T18:22:05.155Z,9.32
2023-11-30T18:24:34.201Z,8.55
2023-11-30T18:27:05.160Z,7.28
2023-11-30T18:29:34.589Z,8.07
2023-11-30T18:32:04.257Z,7.55
2023-11-30T18:34:33.890Z,8.23
2023-11-30T18:37:03.600Z,7.65
2023-11-30T18:39:32.123Z,6.95
2023-11-30T18:42:01.307Z,6.30
2023-11-30T18:44:30.608Z,6.80
2023-11-30T18:47:00.768Z,6.90
2023-11-30T18:49:30.111Z,6.57
2023-11-30T18:52:00.382Z,5.90
2023-11-30T18:54:32.410Z,6.57
2023-11-30T18:57:02.266Z,5.80
2023-11-30T18:59:32.238Z,6.18
2023-11-30T19:02:02.825Z,5.68
2023-11-30T19:04:33.894Z,6.03
2023-11-30T19:07:03.802Z,7.30
2023-11-30T19:09:35.310Z,6.57
2023-11-30T19:12:04.907Z,5.30
2023-11-30T19:14:35.802Z,6.70
2023-11-30T19:17:09.561Z,7.03
2023-11-30T19:19:39.633Z,7.18
2023-11-30T19:22:08.850Z,7.43
2023-11-30T19:24:40.542Z,7.20
2023-11-30T19:27:09.897Z,7.88
2023-11-30T19:29:39.644Z,7.13
2023-11-30T19:32:09.689Z,8.02
2023-11-30T19:34:39.047Z,6.32
2023-11-30T19:37:09.147Z,6.28
2023-11-30T19:39:41.073Z,5.50
2023-11-30T19:42:11.437Z,6.88
2023-11-30T19:44:41.565Z,5.95
2023-11-30T19:47:14.309Z,5.15
2023-11-30T19:49:44.611Z,5.85
2023-11-30T19:52:14.501Z,6.13
2023-11-30T19:54:46.158Z,5.78
2023-11-30T19:57:16.219Z,6.63
2023-11-30T19:59:46.066Z,6.32
2023-11-30T20:02:16.407Z,6.53
2023-11-30T20:04:46.665Z,5.80
2023-11-30T20:07:16.791Z,5.13
2023-11-30T20:09:48.426Z,5.93
2023-11-30T20:12:18.897Z,6.20
2023-11-30T20:14:48.798Z,5.85
2023-11-30T20:17:18.661Z,6.13
2023-11-30T20:19:48.426Z,6.07
2023-11-30T20:22:18.120Z,5.68
2023-11-30T20:24:50.120Z,6.03
2023-11-30T20:27:19.858Z,6.03
2023-11-30T20:29:49.505Z,5.65
2023-11-30T20:32:20.936Z,6.20
2023-11-30T20:34:51.714Z,7.00
2023-11-30T20:37:20.947Z,5.93
2023-11-30T20:39:53.139Z,6.07
2023-11-30T20:42:24.989Z,6.30
2023-11-30T20:44:55.343Z,6.07
2023-11-30T20:47:26.020Z,6.70
2023-11-30T20:49:55.030Z,6.85
2023-11-30T20:52:24.574Z,7.40
2023-11-30T20:54:55.596Z,7.95
2023-11-30T20:57:24.616Z,7.63
2023-11-30T20:59:53.616Z,7.35
2023-11-30T21:02:24.112Z,6.90
2023-11-30T21:04:52.380Z,7.32
2023-11-30T21:07:21.120Z,7.18
2023-11-30T21:09:49.495Z,7.57
2023-11-30T21:12:19.003Z,7.72
2023-11-30T21:14:47.103Z,8.07
2023-11-30T21:17:15.237Z,8.18
2023-11-30T21:19:43.368Z,7.80
2023-11-30T21:22:14.921Z,7.03
2023-11-30T21:24:46.033Z,7.22
2023-11-30T21:27:18.703Z,6.93
2023-11-30T21:29:46.986Z,7.53
2023-11-30T21:32:15.314Z,5.47
2023-11-30T21:34:43.854Z,6.25
2023-11-30T21:37:12.164Z,6.30
2023-11-30T21:39:40.505Z,6.55
2023-11-30T21:42:11.590Z,6.82
2023-11-30T21:44:43.291Z,6.18
2023-11-30T21:47:13.264Z,5.63
2023-11-30T21:49:41.903Z,6.68
2023-11-30T21:52:10.067Z,6.35
2023-11-30T21:54:38.243Z,6.78
2023-11-30T21:57:06.582Z,7.45
2023-11-30T21:59:37.704Z,6.40
2023-11-30T22:02:07.766Z,6.38
2023-11-30T22:04:36.102Z,6.63
2023-11-30T22:07:04.325Z,7.07
2023-11-30T22:09:31.418Z,6.00
2023-11-30T22:12:00.510Z,7.65
2023-11-30T22:14:29.212Z,5.90
2023-11-30T22:16:57.992Z,5.30
2023-11-30T22:19:27.515Z,6.38
2023-11-30T22:21:55.774Z,6.35
2023-11-30T22:24:23.978Z,5.65
2023-11-30T22:26:52.077Z,5.72
2023-11-30T22:29:20.738Z,6.03
2023-11-30T22:31:48.974Z,4.75
2023-11-30T22:34:17.954Z,5.88
2023-11-30T22:36:49.890Z,5.10
2023-11-30T22:39:18.352Z,5.13
2023-11-30T22:41:47.456Z,5.57
2023-11-30T22:44:16.217Z,6.43
2023-11-30T22:46:44.741Z,5.70
2023-11-30T22:49:13.022Z,5.78
2023-11-30T22:51:43.270Z,6.40
2023-11-30T22:54:13.055Z,6.30
2023-11-30T22:56:41.229Z,6.47
2023-11-30T22:59:09.664Z,5.97
2023-11-30T23:01:38.428Z,6.03
2023-11-30T23:04:07.161Z,5.90
2023-11-30T23:06:35.426Z,5.28
2023-11-30T23:09:04.191Z,4.88
2023-11-30T23:11:33.667Z,5.20
2023-11-30T23:14:01.907Z,4.57
2023-11-30T23:16:31.001Z,5.07
2023-11-30T23:18:59.481Z,5.60
2023-11-30T23:21:27.782Z,4.93
2023-11-30T23:23:56.778Z,4.40
2023-11-30T23:26:25.213Z,5.10
2023-11-30T23:28:54.703Z,4.40
2023-11-30T23:31:23.359Z,4.80
2023-11-30T23:33:51.808Z,4.88
2023-11-30T23:36:20.223Z,4.88
2023-11-30T23:38:48.420Z,4.60
2023-11-30T23:41:16.988Z,5.25
2023-11-30T23:43:45.231Z,5.32
2023-11-30T23:46:15.083Z,4.75
2023-11-30T23:48:43.878Z,4.70
2023-11-30T23:51:12.074Z,5.88
2023-11-30T23:53:40.681Z,6.03
2023-11-30T23:56:10.370Z,5.63
2023-11-30T23:58:38.882Z,5.57
